sensor_id;sensor_type;location;lat;lon;timestamp;temperature;humidity
67157;SHT31;54086;50.126;8.710;2022-09-09T01:07:16;17.12;78.48
67157;SHT31;54086;50.126;8.710;2022-09-09T01:17:26;17.02;78.96
67157;SHT31;54086;50.126;8.710;2022-09-09T01:20:08;17.04;78.85
67157;SHT31;54086;50.126;8.710;2022-09-09T01:22:47;17.08;79.04
67157;SHT31;54086;50.126;8.710;2022-09-09T01:26:04;17.10;78.87
67157;SHT31;54086;50.126;8.710;2022-09-09T01:28:22;17.11;78.93
67157;SHT31;54086;50.126;8.710;2022-09-09T01:30:50;17.10;78.74
67157;SHT31;54086;50.126;8.710;2022-09-09T01:33:17;17.10;78.98
67157;SHT31;54086;50.126;8.710;2022-09-09T01:38:16;17.00;79.24
67157;SHT31;54086;50.126;8.710;2022-09-09T01:40:42;17.01;79.35
67157;SHT31;54086;50.126;8.710;2022-09-09T01:43:08;17.01;79.37
67157;SHT31;54086;50.126;8.710;2022-09-09T01:45:34;17.04;79.42
67157;SHT31;54086;50.126;8.710;2022-09-09T01:48:00;17.01;79.41
67157;SHT31;54086;50.126;8.710;2022-09-09T01:50:26;17.01;79.45
67157;SHT31;54086;50.126;8.710;2022-09-09T01:52:59;17.01;79.59
67157;SHT31;54086;50.126;8.710;2022-09-09T01:55:53;17.01;79.62
67157;SHT31;54086;50.126;8.710;2022-09-09T01:58:24;17.01;79.64
67157;SHT31;54086;50.126;8.710;2022-09-09T02:01:02;17.02;79.70
67157;SHT31;54086;50.126;8.710;2022-09-09T02:03:31;17.05;79.77
67157;SHT31;54086;50.126;8.710;2022-09-09T02:08:49;17.11;79.50
67157;SHT31;54086;50.126;8.710;2022-09-09T02:11:18;17.11;79.57
67157;SHT31;54086;50.126;8.710;2022-09-09T02:13:46;17.18;79.48
67157;SHT31;54086;50.126;8.710;2022-09-09T02:16:23;17.12;79.64
67157;SHT31;54086;50.126;8.710;2022-09-09T02:21:25;17.08;79.82
67157;SHT31;54086;50.126;8.710;2022-09-09T02:23:55;17.04;79.96
67157;SHT31;54086;50.126;8.710;2022-09-09T02:26:21;17.10;79.95
67157;SHT31;54086;50.126;8.710;2022-09-09T02:28:50;17.05;80.04
67157;SHT31;54086;50.126;8.710;2022-09-09T02:31:18;17.10;80.08
67157;SHT31;54086;50.126;8.710;2022-09-09T02:33:49;17.11;79.94
67157;SHT31;54086;50.126;8.710;2022-09-09T02:36:16;17.21;79.80
67157;SHT31;54086;50.126;8.710;2022-09-09T02:38:45;17.28;79.55
67157;SHT31;54086;50.126;8.710;2022-09-09T02:41:16;17.31;79.27
67157;SHT31;54086;50.126;8.710;2022-09-09T02:43:42;17.33;79.08
67157;SHT31;54086;50.126;8.710;2022-09-09T02:46:36;17.26;79.41
67157;SHT31;54086;50.126;8.710;2022-09-09T02:49:10;17.14;79.60
67157;SHT31;54086;50.126;8.710;2022-09-09T02:52:05;17.22;79.69
67157;SHT31;54086;50.126;8.710;2022-09-09T02:54:35;17.28;79.29
67157;SHT31;54086;50.126;8.710;2022-09-09T02:57:23;17.33;79.24
67157;SHT31;54086;50.126;8.710;2022-09-09T02:59:50;17.33;79.35
67157;SHT31;54086;50.126;8.710;2022-09-09T03:02:17;17.28;79.56
67157;SHT31;54086;50.126;8.710;2022-09-09T03:04:44;17.12;79.90
67157;SHT31;54086;50.126;8.710;2022-09-09T03:07:10;17.18;80.05
67157;SHT31;54086;50.126;8.710;2022-09-09T03:09:36;17.22;79.77
67157;SHT31;54086;50.126;8.710;2022-09-09T03:12:02;17.15;80.00
67157;SHT31;54086;50.126;8.710;2022-09-09T03:14:29;17.19;79.98
67157;SHT31;54086;50.126;8.710;2022-09-09T03:16:55;17.23;79.80
67157;SHT31;54086;50.126;8.710;2022-09-09T03:19:23;17.22;79.91
67157;SHT31;54086;50.126;8.710;2022-09-09T03:21:48;17.14;80.16
67157;SHT31;54086;50.126;8.710;2022-09-09T03:24:14;17.05;80.47
67157;SHT31;54086;50.126;8.710;2022-09-09T03:26:41;17.07;80.70
67157;SHT31;54086;50.126;8.710;2022-09-09T03:29:07;16.95;80.85
67157;SHT31;54086;50.126;8.710;2022-09-09T03:31:33;16.83;81.29
67157;SHT31;54086;50.126;8.710;2022-09-09T03:33:59;16.81;81.56
67157;SHT31;54086;50.126;8.710;2022-09-09T03:36:27;16.77;81.67
67157;SHT31;54086;50.126;8.710;2022-09-09T03:38:53;16.80;81.43
67157;SHT31;54086;50.126;8.710;2022-09-09T03:41:22;16.80;81.56
67157;SHT31;54086;50.126;8.710;2022-09-09T03:43:52;16.77;81.58
67157;SHT31;54086;50.126;8.710;2022-09-09T03:46:18;16.77;81.72
67157;SHT31;54086;50.126;8.710;2022-09-09T03:48:44;16.81;81.41
67157;SHT31;54086;50.126;8.710;2022-09-09T03:51:10;16.83;81.43
67157;SHT31;54086;50.126;8.710;2022-09-09T03:53:35;16.89;81.33
67157;SHT31;54086;50.126;8.710;2022-09-09T03:56:04;16.91;81.18
67157;SHT31;54086;50.126;8.710;2022-09-09T03:58:32;16.92;81.02
67157;SHT31;54086;50.126;8.710;2022-09-09T04:01:00;16.98;81.06
67157;SHT31;54086;50.126;8.710;2022-09-09T04:03:26;16.87;81.30
67157;SHT31;54086;50.126;8.710;2022-09-09T04:05:53;16.75;81.59
67157;SHT31;54086;50.126;8.710;2022-09-09T04:08:19;16.84;81.54
67157;SHT31;54086;50.126;8.710;2022-09-09T04:10:49;16.77;81.63
67157;SHT31;54086;50.126;8.710;2022-09-09T04:13:15;16.78;81.61
67157;SHT31;54086;50.126;8.710;2022-09-09T04:15:43;16.77;81.67
67157;SHT31;54086;50.126;8.710;2022-09-09T04:18:09;16.74;81.76
67157;SHT31;54086;50.126;8.710;2022-09-09T04:20:34;16.65;82.06
67157;SHT31;54086;50.126;8.710;2022-09-09T04:23:00;16.68;82.12
67157;SHT31;54086;50.126;8.710;2022-09-09T04:25:26;16.64;82.26
67157;SHT31;54086;50.126;8.710;2022-09-09T04:27:55;16.63;82.25
67157;SHT31;54086;50.126;8.710;2022-09-09T04:30:20;16.61;82.30
67157;SHT31;54086;50.126;8.710;2022-09-09T04:32:46;16.57;82.37
67157;SHT31;54086;50.126;8.710;2022-09-09T04:35:11;16.56;82.51
67157;SHT31;54086;50.126;8.710;2022-09-09T04:37:37;16.56;82.52
67157;SHT31;54086;50.126;8.710;2022-09-09T04:40:02;16.47;82.75
67157;SHT31;54086;50.126;8.710;2022-09-09T04:42:28;16.53;82.73
67157;SHT31;54086;50.126;8.710;2022-09-09T04:44:53;16.52;82.69
67157;SHT31;54086;50.126;8.710;2022-09-09T04:47:19;16.50;82.60
67157;SHT31;54086;50.126;8.710;2022-09-09T04:49:45;16.46;82.69
67157;SHT31;54086;50.126;8.710;2022-09-09T04:52:10;16.44;82.74
67157;SHT31;54086;50.126;8.710;2022-09-09T04:54:35;16.57;82.56
67157;SHT31;54086;50.126;8.710;2022-09-09T04:57:01;16.59;82.35
67157;SHT31;54086;50.126;8.710;2022-09-09T04:59:27;16.63;82.24
67157;SHT31;54086;50.126;8.710;2022-09-09T05:01:52;16.56;82.31
67157;SHT31;54086;50.126;8.710;2022-09-09T05:04:19;16.71;81.93
67157;SHT31;54086;50.126;8.710;2022-09-09T05:06:44;16.84;81.37
67157;SHT31;54086;50.126;8.710;2022-09-09T05:09:10;16.92;81.11
67157;SHT31;54086;50.126;8.710;2022-09-09T05:11:36;16.94;81.02
67157;SHT31;54086;50.126;8.710;2022-09-09T05:14:02;16.92;80.90
67157;SHT31;54086;50.126;8.710;2022-09-09T05:16:28;16.91;81.06
67157;SHT31;54086;50.126;8.710;2022-09-09T05:18:53;16.92;81.00
67157;SHT31;54086;50.126;8.710;2022-09-09T05:21:20;16.84;81.14
67157;SHT31;54086;50.126;8.710;2022-09-09T05:23:46;16.80;81.32
67157;SHT31;54086;50.126;8.710;2022-09-09T05:26:17;16.67;81.86
67157;SHT31;54086;50.126;8.710;2022-09-09T05:28:43;16.70;81.86
67157;SHT31;54086;50.126;8.710;2022-09-09T05:31:10;16.73;81.85
67157;SHT31;54086;50.126;8.710;2022-09-09T05:33:40;16.73;81.86
67157;SHT31;54086;50.126;8.710;2022-09-09T05:36:11;16.78;81.77
67157;SHT31;54086;50.126;8.710;2022-09-09T05:38:38;16.80;81.72
67157;SHT31;54086;50.126;8.710;2022-09-09T05:41:05;16.83;81.60
67157;SHT31;54086;50.126;8.710;2022-09-09T05:43:31;16.89;81.51
67157;SHT31;54086;50.126;8.710;2022-09-09T05:46:12;16.98;81.37
67157;SHT31;54086;50.126;8.710;2022-09-09T05:48:40;17.00;81.15
67157;SHT31;54086;50.126;8.710;2022-09-09T05:51:08;17.02;81.00
67157;SHT31;54086;50.126;8.710;2022-09-09T05:53:35;17.01;81.12
67157;SHT31;54086;50.126;8.710;2022-09-09T05:56:11;17.00;81.08
67157;SHT31;54086;50.126;8.710;2022-09-09T05:58:37;16.89;81.39
67157;SHT31;54086;50.126;8.710;2022-09-09T06:01:08;16.89;81.32
67157;SHT31;54086;50.126;8.710;2022-09-09T06:03:35;16.84;81.65
67157;SHT31;54086;50.126;8.710;2022-09-09T06:06:03;16.85;81.57
67157;SHT31;54086;50.126;8.710;2022-09-09T06:08:33;16.85;81.53
67157;SHT31;54086;50.126;8.710;2022-09-09T06:13:29;16.88;81.43
67157;SHT31;54086;50.126;8.710;2022-09-09T06:15:55;16.96;81.17
67157;SHT31;54086;50.126;8.710;2022-09-09T06:18:20;17.01;80.94
67157;SHT31;54086;50.126;8.710;2022-09-09T06:21:05;17.01;81.03
67157;SHT31;54086;50.126;8.710;2022-09-09T06:23:32;16.98;81.09
67157;SHT31;54086;50.126;8.710;2022-09-09T06:26:09;17.07;80.71
67157;SHT31;54086;50.126;8.710;2022-09-09T06:28:35;17.05;80.71
67157;SHT31;54086;50.126;8.710;2022-09-09T06:31:06;17.10;80.59
67157;SHT31;54086;50.126;8.710;2022-09-09T06:33:36;17.19;80.34
67157;SHT31;54086;50.126;8.710;2022-09-09T06:36:04;17.21;80.22
67157;SHT31;54086;50.126;8.710;2022-09-09T06:38:30;17.31;79.83
67157;SHT31;54086;50.126;8.710;2022-09-09T06:40:57;17.36;79.60
67157;SHT31;54086;50.126;8.710;2022-09-09T06:43:24;17.43;79.31
67157;SHT31;54086;50.126;8.710;2022-09-09T06:46:05;17.43;79.31
67157;SHT31;54086;50.126;8.710;2022-09-09T06:48:31;17.63;78.84
67157;SHT31;54086;50.126;8.710;2022-09-09T06:53:36;17.66;78.51
67157;SHT31;54086;50.126;8.710;2022-09-09T06:56:18;17.67;78.52
67157;SHT31;54086;50.126;8.710;2022-09-09T06:58:44;17.73;78.48
67157;SHT31;54086;50.126;8.710;2022-09-09T07:01:11;17.70;78.31
67157;SHT31;54086;50.126;8.710;2022-09-09T07:03:40;17.79;78.10
67157;SHT31;54086;50.126;8.710;2022-09-09T07:06:08;17.84;77.99
67157;SHT31;54086;50.126;8.710;2022-09-09T07:08:34;17.89;77.70
67157;SHT31;54086;50.126;8.710;2022-09-09T07:11:09;17.96;77.61
67157;SHT31;54086;50.126;8.710;2022-09-09T07:13:35;17.98;77.49
67157;SHT31;54086;50.126;8.710;2022-09-09T07:16:17;18.07;76.99
67157;SHT31;54086;50.126;8.710;2022-09-09T07:18:43;18.03;77.10
67157;SHT31;54086;50.126;8.710;2022-09-09T07:21:11;17.91;77.44
67157;SHT31;54086;50.126;8.710;2022-09-09T07:23:40;17.94;77.46
67157;SHT31;54086;50.126;8.710;2022-09-09T07:26:13;18.07;77.03
67157;SHT31;54086;50.126;8.710;2022-09-09T07:28:40;18.05;77.11
67157;SHT31;54086;50.126;8.710;2022-09-09T07:31:07;18.10;76.83
67157;SHT31;54086;50.126;8.710;2022-09-09T07:33:34;18.05;76.92
67157;SHT31;54086;50.126;8.710;2022-09-09T07:38:46;18.05;76.87
67157;SHT31;54086;50.126;8.710;2022-09-09T07:41:22;18.05;76.90
67157;SHT31;54086;50.126;8.710;2022-09-09T07:43:49;17.77;77.51
67157;SHT31;54086;50.126;8.710;2022-09-09T07:46:16;17.80;77.66
67157;SHT31;54086;50.126;8.710;2022-09-09T07:48:50;17.86;77.42
67157;SHT31;54086;50.126;8.710;2022-09-09T07:51:17;18.00;76.78
67157;SHT31;54086;50.126;8.710;2022-09-09T07:53:45;18.05;76.71
67157;SHT31;54086;50.126;8.710;2022-09-09T07:56:14;17.93;77.26
67157;SHT31;54086;50.126;8.710;2022-09-09T07:58:42;17.91;77.27
67157;SHT31;54086;50.126;8.710;2022-09-09T08:01:13;17.90;77.31
67157;SHT31;54086;50.126;8.710;2022-09-09T08:03:39;17.94;77.38
67157;SHT31;54086;50.126;8.710;2022-09-09T08:06:07;17.98;77.34
67157;SHT31;54086;50.126;8.710;2022-09-09T08:08:34;17.97;77.52
67157;SHT31;54086;50.126;8.710;2022-09-09T08:11:26;17.97;77.74
67157;SHT31;54086;50.126;8.710;2022-09-09T08:13:53;18.07;77.48
67157;SHT31;54086;50.126;8.710;2022-09-09T08:16:21;18.24;76.95
67157;SHT31;54086;50.126;8.710;2022-09-09T08:18:48;18.32;76.76
67157;SHT31;54086;50.126;8.710;2022-09-09T08:21:17;18.35;76.55
67157;SHT31;54086;50.126;8.710;2022-09-09T08:23:44;18.45;76.17
67157;SHT31;54086;50.126;8.710;2022-09-09T08:26:17;18.61;75.57
67157;SHT31;54086;50.126;8.710;2022-09-09T08:28:48;18.58;75.67
67157;SHT31;54086;50.126;8.710;2022-09-09T08:31:20;18.61;75.15
67157;SHT31;54086;50.126;8.710;2022-09-09T08:33:46;18.79;74.69
67157;SHT31;54086;50.126;8.710;2022-09-09T08:36:14;18.85;74.21
67157;SHT31;54086;50.126;8.710;2022-09-09T08:38:43;18.92;73.95
67157;SHT31;54086;50.126;8.710;2022-09-09T08:44:12;19.26;73.12
67157;SHT31;54086;50.126;8.710;2022-09-09T08:52:37;18.86;74.01
67157;SHT31;54086;50.126;8.710;2022-09-09T08:55:22;18.89;74.39
67157;SHT31;54086;50.126;8.710;2022-09-09T08:57:51;18.73;74.79
67157;SHT31;54086;50.126;8.710;2022-09-09T09:00:18;18.66;74.88
67157;SHT31;54086;50.126;8.710;2022-09-09T09:07:56;18.79;73.97
67157;SHT31;54086;50.126;8.710;2022-09-09T09:10:47;18.85;73.20
67157;SHT31;54086;50.126;8.710;2022-09-09T09:13:17;18.98;72.93
67157;SHT31;54086;50.126;8.710;2022-09-09T09:15:44;19.11;72.77
67157;SHT31;54086;50.126;8.710;2022-09-09T09:18:12;19.35;72.46
67157;SHT31;54086;50.126;8.710;2022-09-09T09:21:03;19.28;72.65
67157;SHT31;54086;50.126;8.710;2022-09-09T09:23:44;19.00;73.16
67157;SHT31;54086;50.126;8.710;2022-09-09T09:26:10;19.31;72.62
67157;SHT31;54086;50.126;8.710;2022-09-09T09:28:42;19.26;72.75
67157;SHT31;54086;50.126;8.710;2022-09-09T09:31:10;19.03;73.77
67157;SHT31;54086;50.126;8.710;2022-09-09T09:33:47;18.79;75.16
67157;SHT31;54086;50.126;8.710;2022-09-09T09:36:15;18.75;73.90
67157;SHT31;54086;50.126;8.710;2022-09-09T09:38:53;18.92;74.04
67157;SHT31;54086;50.126;8.710;2022-09-09T09:41:30;18.90;73.58
67157;SHT31;54086;50.126;8.710;2022-09-09T09:43:56;18.85;73.81
67157;SHT31;54086;50.126;8.710;2022-09-09T09:46:23;18.85;73.25
67157;SHT31;54086;50.126;8.710;2022-09-09T09:49:02;18.89;73.56
67157;SHT31;54086;50.126;8.710;2022-09-09T09:51:32;18.75;74.09
67157;SHT31;54086;50.126;8.710;2022-09-09T09:54:18;18.61;75.62
67157;SHT31;54086;50.126;8.710;2022-09-09T09:56:48;18.22;77.69
67157;SHT31;54086;50.126;8.710;2022-09-09T09:59:32;18.15;78.35
67157;SHT31;54086;50.126;8.710;2022-09-09T10:02:24;18.03;78.52
67157;SHT31;54086;50.126;8.710;2022-09-09T10:07:30;18.05;79.35
67157;SHT31;54086;50.126;8.710;2022-09-09T10:09:57;18.01;79.56
67157;SHT31;54086;50.126;8.710;2022-09-09T10:18:22;19.31;75.90
67157;SHT31;54086;50.126;8.710;2022-09-09T10:35:20;21.07;70.67
67157;SHT31;54086;50.126;8.710;2022-09-09T10:40:05;21.55;69.93
67157;SHT31;54086;50.126;8.710;2022-09-09T10:42:34;20.91;71.68
67157;SHT31;54086;50.126;8.710;2022-09-09T10:45:06;20.84;72.02
67157;SHT31;54086;50.126;8.710;2022-09-09T10:55:51;19.93;72.67
67157;SHT31;54086;50.126;8.710;2022-09-09T11:00:52;19.71;76.83
67157;SHT31;54086;50.126;8.710;2022-09-09T11:03:22;19.53;77.13
67157;SHT31;54086;50.126;8.710;2022-09-09T11:05:56;19.61;76.64
67157;SHT31;54086;50.126;8.710;2022-09-09T11:08:32;19.50;77.04
67157;SHT31;54086;50.126;8.710;2022-09-09T11:11:16;20.19;75.31
67157;SHT31;54086;50.126;8.710;2022-09-09T11:16:24;20.81;73.27
67157;SHT31;54086;50.126;8.710;2022-09-09T11:19:01;20.81;72.51
67157;SHT31;54086;50.126;8.710;2022-09-09T11:21:35;20.67;73.50
67157;SHT31;54086;50.126;8.710;2022-09-09T11:24:08;20.50;73.54
67157;SHT31;54086;50.126;8.710;2022-09-09T11:26:41;20.41;72.01
67157;SHT31;54086;50.126;8.710;2022-09-09T11:32:05;21.85;67.83
67157;SHT31;54086;50.126;8.710;2022-09-09T11:40:09;21.15;70.15
67157;SHT31;54086;50.126;8.710;2022-09-09T11:42:39;22.16;69.12
67157;SHT31;54086;50.126;8.710;2022-09-09T11:45:31;22.59;64.46
67157;SHT31;54086;50.126;8.710;2022-09-09T11:48:01;22.89;62.41
67157;SHT31;54086;50.126;8.710;2022-09-09T11:50:33;23.07;61.89
67157;SHT31;54086;50.126;8.710;2022-09-09T11:53:18;23.64;58.68
67157;SHT31;54086;50.126;8.710;2022-09-09T11:55:46;23.27;58.43
67157;SHT31;54086;50.126;8.710;2022-09-09T12:00:39;21.87;60.36
67157;SHT31;54086;50.126;8.710;2022-09-09T12:03:31;21.80;61.78
67157;SHT31;54086;50.126;8.710;2022-09-09T12:05:59;21.69;62.73
67157;SHT31;54086;50.126;8.710;2022-09-09T12:08:28;21.28;64.18
67157;SHT31;54086;50.126;8.710;2022-09-09T12:10:59;21.24;66.72
67157;SHT31;54086;50.126;8.710;2022-09-09T12:13:26;21.34;66.99
67157;SHT31;54086;50.126;8.710;2022-09-09T12:15:53;21.77;66.18
67157;SHT31;54086;50.126;8.710;2022-09-09T12:18:24;22.11;63.68
67157;SHT31;54086;50.126;8.710;2022-09-09T12:20:57;22.25;62.03
67157;SHT31;54086;50.126;8.710;2022-09-09T12:23:32;21.85;60.97
67157;SHT31;54086;50.126;8.710;2022-09-09T12:26:10;22.07;62.30
67157;SHT31;54086;50.126;8.710;2022-09-09T12:31:59;21.49;60.86
67157;SHT31;54086;50.126;8.710;2022-09-09T12:34:42;21.43;60.92
67157;SHT31;54086;50.126;8.710;2022-09-09T12:37:21;21.38;61.96
67157;SHT31;54086;50.126;8.710;2022-09-09T12:39:57;21.18;63.83
67157;SHT31;54086;50.126;8.710;2022-09-09T12:42:23;21.19;62.97
67157;SHT31;54086;50.126;8.710;2022-09-09T12:44:53;21.08;62.98
67157;SHT31;54086;50.126;8.710;2022-09-09T12:47:21;20.84;62.96
67157;SHT31;54086;50.126;8.710;2022-09-09T12:49:48;20.77;64.14
67157;SHT31;54086;50.126;8.710;2022-09-09T12:54:45;19.47;76.44
67157;SHT31;54086;50.126;8.710;2022-09-09T12:57:17;16.83;84.40
67157;SHT31;54086;50.126;8.710;2022-09-09T12:59:43;16.77;85.99
67157;SHT31;54086;50.126;8.710;2022-09-09T13:02:25;16.77;85.76
67157;SHT31;54086;50.126;8.710;2022-09-09T13:04:50;16.95;88.37
67157;SHT31;54086;50.126;8.710;2022-09-09T13:07:18;16.96;86.59
67157;SHT31;54086;50.126;8.710;2022-09-09T13:09:45;17.25;87.30
67157;SHT31;54086;50.126;8.710;2022-09-09T13:12:22;17.40;86.60
67157;SHT31;54086;50.126;8.710;2022-09-09T13:14:55;17.59;86.17
67157;SHT31;54086;50.126;8.710;2022-09-09T13:17:25;17.72;86.16
67157;SHT31;54086;50.126;8.710;2022-09-09T13:19:54;17.91;84.34
67157;SHT31;54086;50.126;8.710;2022-09-09T13:22:41;17.96;83.71
67157;SHT31;54086;50.126;8.710;2022-09-09T13:27:38;18.01;82.59
67157;SHT31;54086;50.126;8.710;2022-09-09T13:33:17;18.31;81.24
67157;SHT31;54086;50.126;8.710;2022-09-09T13:35:55;18.49;77.59
67157;SHT31;54086;50.126;8.710;2022-09-09T13:38:21;18.85;76.79
67157;SHT31;54086;50.126;8.710;2022-09-09T13:40:58;18.72;78.55
67157;SHT31;54086;50.126;8.710;2022-09-09T13:43:25;19.21;74.62
67157;SHT31;54086;50.126;8.710;2022-09-09T13:45:56;20.37;70.70
67157;SHT31;54086;50.126;8.710;2022-09-09T13:48:23;20.37;69.96
67157;SHT31;54086;50.126;8.710;2022-09-09T13:50:57;20.97;69.48
67157;SHT31;54086;50.126;8.710;2022-09-09T13:53:23;21.35;66.50
67157;SHT31;54086;50.126;8.710;2022-09-09T13:55:48;21.27;66.31
67157;SHT31;54086;50.126;8.710;2022-09-09T13:58:15;21.08;65.89
67157;SHT31;54086;50.126;8.710;2022-09-09T14:00:41;21.65;64.55
67157;SHT31;54086;50.126;8.710;2022-09-09T14:03:08;21.86;64.50
67157;SHT31;54086;50.126;8.710;2022-09-09T14:05:34;22.06;63.90
67157;SHT31;54086;50.126;8.710;2022-09-09T14:07:59;22.11;62.54
67157;SHT31;54086;50.126;8.710;2022-09-09T14:10:28;21.55;63.63
67157;SHT31;54086;50.126;8.710;2022-09-09T14:12:53;21.21;64.20
67157;SHT31;54086;50.126;8.710;2022-09-09T14:15:19;20.81;65.33
67157;SHT31;54086;50.126;8.710;2022-09-09T14:17:45;20.50;66.27
67157;SHT31;54086;50.126;8.710;2022-09-09T14:20:11;20.32;68.13
67157;SHT31;54086;50.126;8.710;2022-09-09T14:22:37;20.09;68.09
67157;SHT31;54086;50.126;8.710;2022-09-09T14:25:04;20.02;67.29
67157;SHT31;54086;50.126;8.710;2022-09-09T14:27:30;19.86;67.99
67157;SHT31;54086;50.126;8.710;2022-09-09T14:29:56;19.78;68.67
67157;SHT31;54086;50.126;8.710;2022-09-09T14:32:22;19.68;69.59
67157;SHT31;54086;50.126;8.710;2022-09-09T14:34:47;19.64;69.26
67157;SHT31;54086;50.126;8.710;2022-09-09T14:37:18;19.61;69.35
67157;SHT31;54086;50.126;8.710;2022-09-09T14:39:44;19.55;70.15
67157;SHT31;54086;50.126;8.710;2022-09-09T14:42:13;19.46;70.50
67157;SHT31;54086;50.126;8.710;2022-09-09T14:44:39;19.31;70.49
67157;SHT31;54086;50.126;8.710;2022-09-09T14:47:05;19.19;71.19
67157;SHT31;54086;50.126;8.710;2022-09-09T14:49:32;19.26;71.24
67157;SHT31;54086;50.126;8.710;2022-09-09T14:51:57;19.34;70.82
67157;SHT31;54086;50.126;8.710;2022-09-09T14:54:22;19.51;70.41
67157;SHT31;54086;50.126;8.710;2022-09-09T14:56:48;19.77;69.99
67157;SHT31;54086;50.126;8.710;2022-09-09T14:59:13;19.75;69.66
67157;SHT31;54086;50.126;8.710;2022-09-09T15:01:39;19.92;69.63
67157;SHT31;54086;50.126;8.710;2022-09-09T15:04:05;20.10;69.16
67157;SHT31;54086;50.126;8.710;2022-09-09T15:06:33;19.99;68.80
67157;SHT31;54086;50.126;8.710;2022-09-09T15:08:59;19.75;68.94
67157;SHT31;54086;50.126;8.710;2022-09-09T15:11:30;19.77;69.13
67157;SHT31;54086;50.126;8.710;2022-09-09T15:13:57;19.82;68.63
67157;SHT31;54086;50.126;8.710;2022-09-09T15:16:26;19.70;68.59
67157;SHT31;54086;50.126;8.710;2022-09-09T15:18:53;19.57;68.75
67157;SHT31;54086;50.126;8.710;2022-09-09T15:21:21;19.41;69.37
67157;SHT31;54086;50.126;8.710;2022-09-09T15:23:48;19.58;68.97
67157;SHT31;54086;50.126;8.710;2022-09-09T15:26:14;19.81;69.12
67157;SHT31;54086;50.126;8.710;2022-09-09T15:28:41;19.79;68.19
67157;SHT31;54086;50.126;8.710;2022-09-09T15:31:11;19.78;68.26
67157;SHT31;54086;50.126;8.710;2022-09-09T15:33:40;20.02;68.16
67157;SHT31;54086;50.126;8.710;2022-09-09T15:36:19;20.05;67.60
67157;SHT31;54086;50.126;8.710;2022-09-09T15:38:45;20.10;67.88
67157;SHT31;54086;50.126;8.710;2022-09-09T15:41:14;20.08;67.88
67157;SHT31;54086;50.126;8.710;2022-09-09T15:43:48;20.04;68.10
67157;SHT31;54086;50.126;8.710;2022-09-09T15:48:57;19.89;68.09
67157;SHT31;54086;50.126;8.710;2022-09-09T15:51:23;19.99;68.40
67157;SHT31;54086;50.126;8.710;2022-09-09T15:53:57;19.93;68.23
67157;SHT31;54086;50.126;8.710;2022-09-09T15:56:24;19.98;68.25
67157;SHT31;54086;50.126;8.710;2022-09-09T15:58:50;19.93;68.61
67157;SHT31;54086;50.126;8.710;2022-09-09T16:01:17;19.95;68.92
67157;SHT31;54086;50.126;8.710;2022-09-09T16:03:44;19.89;68.66
67157;SHT31;54086;50.126;8.710;2022-09-09T16:06:16;19.78;69.02
67157;SHT31;54086;50.126;8.710;2022-09-09T16:08:44;19.71;69.36
67157;SHT31;54086;50.126;8.710;2022-09-09T16:11:14;19.72;69.45
67157;SHT31;54086;50.126;8.710;2022-09-09T16:13:42;19.68;70.04
67157;SHT31;54086;50.126;8.710;2022-09-09T16:16:10;19.61;70.13
67157;SHT31;54086;50.126;8.710;2022-09-09T16:18:39;19.55;70.21
67157;SHT31;54086;50.126;8.710;2022-09-09T16:21:05;19.57;70.50
67157;SHT31;54086;50.126;8.710;2022-09-09T16:23:33;19.53;70.47
67157;SHT31;54086;50.126;8.710;2022-09-09T16:25:59;19.54;70.65
67157;SHT31;54086;50.126;8.710;2022-09-09T16:28:25;19.55;70.69
67157;SHT31;54086;50.126;8.710;2022-09-09T16:30:50;19.57;70.87
67157;SHT31;54086;50.126;8.710;2022-09-09T16:33:16;19.51;70.95
67157;SHT31;54086;50.126;8.710;2022-09-09T16:35:42;19.44;71.28
67157;SHT31;54086;50.126;8.710;2022-09-09T16:38:07;19.38;71.08
67157;SHT31;54086;50.126;8.710;2022-09-09T16:40:37;19.37;70.73
67157;SHT31;54086;50.126;8.710;2022-09-09T16:43:03;19.33;70.21
67157;SHT31;54086;50.126;8.710;2022-09-09T16:45:29;19.38;70.50
67157;SHT31;54086;50.126;8.710;2022-09-09T16:47:55;19.37;70.61
67157;SHT31;54086;50.126;8.710;2022-09-09T16:50:21;19.30;70.99
67157;SHT31;54086;50.126;8.710;2022-09-09T16:52:46;19.23;71.65
67157;SHT31;54086;50.126;8.710;2022-09-09T16:55:11;19.17;72.30
67157;SHT31;54086;50.126;8.710;2022-09-09T16:57:37;19.13;72.65
67157;SHT31;54086;50.126;8.710;2022-09-09T17:00:04;19.11;72.93
67157;SHT31;54086;50.126;8.710;2022-09-09T17:02:31;19.07;73.35
67157;SHT31;54086;50.126;8.710;2022-09-09T17:04:56;19.02;73.63
67157;SHT31;54086;50.126;8.710;2022-09-09T17:07:22;19.09;73.80
67157;SHT31;54086;50.126;8.710;2022-09-09T17:09:48;19.03;73.99
67157;SHT31;54086;50.126;8.710;2022-09-09T17:12:14;18.98;74.32
67157;SHT31;54086;50.126;8.710;2022-09-09T17:14:39;18.93;74.51
67157;SHT31;54086;50.126;8.710;2022-09-09T17:17:05;19.02;74.73
67157;SHT31;54086;50.126;8.710;2022-09-09T17:19:31;18.90;74.95
67157;SHT31;54086;50.126;8.710;2022-09-09T17:21:59;18.92;75.48
67157;SHT31;54086;50.126;8.710;2022-09-09T17:24:28;18.79;75.76
67157;SHT31;54086;50.126;8.710;2022-09-09T17:26:54;18.88;75.98
67157;SHT31;54086;50.126;8.710;2022-09-09T17:29:20;18.81;76.27
67157;SHT31;54086;50.126;8.710;2022-09-09T17:31:46;18.72;76.76
67157;SHT31;54086;50.126;8.710;2022-09-09T17:34:12;18.79;76.82
67157;SHT31;54086;50.126;8.710;2022-09-09T17:36:37;18.72;76.79
67157;SHT31;54086;50.126;8.710;2022-09-09T17:39:04;18.59;77.20
67157;SHT31;54086;50.126;8.710;2022-09-09T17:41:35;18.59;77.23
67157;SHT31;54086;50.126;8.710;2022-09-09T17:44:01;18.61;77.12
67157;SHT31;54086;50.126;8.710;2022-09-09T17:46:31;18.63;77.05
67157;SHT31;54086;50.126;8.710;2022-09-09T17:49:00;18.62;77.18
67157;SHT31;54086;50.126;8.710;2022-09-09T17:51:28;18.49;77.29
67157;SHT31;54086;50.126;8.710;2022-09-09T17:53:57;18.45;77.47
67157;SHT31;54086;50.126;8.710;2022-09-09T17:56:24;18.45;77.34
67157;SHT31;54086;50.126;8.710;2022-09-09T17:58:51;18.42;77.48
67157;SHT31;54086;50.126;8.710;2022-09-09T18:01:22;18.37;77.54
67157;SHT31;54086;50.126;8.710;2022-09-09T18:03:49;18.25;77.60
67157;SHT31;54086;50.126;8.710;2022-09-09T18:06:19;18.27;77.93
67157;SHT31;54086;50.126;8.710;2022-09-09T18:08:54;18.27;78.20
67157;SHT31;54086;50.126;8.710;2022-09-09T18:11:21;18.22;78.36
67157;SHT31;54086;50.126;8.710;2022-09-09T18:13:49;18.18;78.50
67157;SHT31;54086;50.126;8.710;2022-09-09T18:16:15;18.07;78.94
67157;SHT31;54086;50.126;8.710;2022-09-09T18:18:41;17.94;79.36
67157;SHT31;54086;50.126;8.710;2022-09-09T18:21:08;17.86;79.59
67157;SHT31;54086;50.126;8.710;2022-09-09T18:23:38;17.83;79.82
67157;SHT31;54086;50.126;8.710;2022-09-09T18:26:12;17.79;79.63
67157;SHT31;54086;50.126;8.710;2022-09-09T18:28:39;17.72;79.89
67157;SHT31;54086;50.126;8.710;2022-09-09T18:31:10;17.72;80.15